createdAt,value
2023-05-15T00:00:44.324Z,12.79
2023-05-15T00:03:46.847Z,12.79
2023-05-15T00:06:49.445Z,12.76
2023-05-15T00:09:51.910Z,12.71
2023-05-15T00:12:56.049Z,12.73
2023-05-15T00:15:58.472Z,12.74
2023-05-15T00:19:01.090Z,12.68
2023-05-15T00:22:03.700Z,12.75
2023-05-15T00:25:06.736Z,12.69
2023-05-15T00:28:09.256Z,12.86
2023-05-15T00:31:13.176Z,12.86
2023-05-15T00:34:15.625Z,12.88
2023-05-15T00:37:18.059Z,12.81
2023-05-15T00:40:24.267Z,12.82
2023-05-15T00:43:28.716Z,12.95
2023-05-15T00:46:32.734Z,12.92
2023-05-15T00:49:37.450Z,12.88
2023-05-15T00:52:39.853Z,12.75
2023-05-15T00:55:43.167Z,12.74
2023-05-15T00:58:50.700Z,12.81
2023-05-15T01:01:55.452Z,12.81
2023-05-15T01:04:57.978Z,12.85
2023-05-15T01:08:21.379Z,12.86
2023-05-15T01:11:27.619Z,12.80
2023-05-15T01:14:30.074Z,12.77
2023-05-15T01:17:32.541Z,12.83
2023-05-15T01:21:01.964Z,12.86
2023-05-15T01:24:30.117Z,12.85
2023-05-15T01:27:32.474Z,12.83
2023-05-15T01:30:38.665Z,12.76
2023-05-15T01:33:45.847Z,12.84
2023-05-15T01:36:53.447Z,12.84
2023-05-15T01:40:00.984Z,12.74
2023-05-15T01:43:09.522Z,12.76
2023-05-15T01:46:19.385Z,12.78
2023-05-15T01:49:27.362Z,12.88
2023-05-15T01:52:33.942Z,12.87
2023-05-15T01:55:38.810Z,12.83
2023-05-15T01:58:42.877Z,12.81
2023-05-15T02:01:46.780Z,12.74
2023-05-15T02:04:51.685Z,12.81
2023-05-15T02:07:56.083Z,12.75
2023-05-15T02:11:03.269Z,12.85
2023-05-15T02:14:06.110Z,12.76
2023-05-15T02:17:08.684Z,12.70
2023-05-15T02:20:11.526Z,12.87
2023-05-15T02:23:13.924Z,12.83
2023-05-15T02:26:49.025Z,12.81
2023-05-15T02:30:21.599Z,12.81
2023-05-15T02:33:41.898Z,12.76
2023-05-15T02:36:48.540Z,12.69
2023-05-15T02:39:54.593Z,12.68
2023-05-15T02:42:57.841Z,12.62
2023-05-15T02:46:00.712Z,12.59
2023-05-15T02:49:04.070Z,12.59
2023-05-15T02:52:07.510Z,12.59
2023-05-15T02:55:10.333Z,12.55
2023-05-15T02:58:12.965Z,12.60
2023-05-15T03:01:15.426Z,12.58
2023-05-15T03:04:18.079Z,12.67
2023-05-15T03:07:20.761Z,12.63
2023-05-15T03:10:24.282Z,12.63
2023-05-15T03:13:26.779Z,12.73
2023-05-15T03:16:29.520Z,12.75
2023-05-15T03:19:32.115Z,12.67
2023-05-15T03:22:34.767Z,12.73
2023-05-15T03:25:37.254Z,12.75
2023-05-15T03:28:41.647Z,12.81
2023-05-15T03:31:44.712Z,12.86
2023-05-15T03:34:47.263Z,12.80
2023-05-15T03:37:50.019Z,12.84
2023-05-15T03:40:52.537Z,12.85
2023-05-15T03:43:54.964Z,12.74
2023-05-15T03:46:57.527Z,12.79
2023-05-15T03:50:00.149Z,12.74
2023-05-15T03:53:02.819Z,12.73
2023-05-15T03:56:06.011Z,12.86
2023-05-15T03:59:08.588Z,12.93
2023-05-15T04:02:11.447Z,12.86
2023-05-15T04:05:13.906Z,12.95
2023-05-15T04:08:16.755Z,12.98
2023-05-15T04:11:19.562Z,13.05
2023-05-15T04:14:21.998Z,13.08
2023-05-15T04:17:24.442Z,12.96
2023-05-15T04:20:26.961Z,13.17
2023-05-15T04:23:29.445Z,13.19
2023-05-15T04:26:32.007Z,13.30
2023-05-15T04:29:34.560Z,13.40
2023-05-15T04:32:38.588Z,13.41
2023-05-15T04:35:42.765Z,13.50
2023-05-15T04:38:45.318Z,13.37
2023-05-15T04:41:47.832Z,13.53
2023-05-15T04:44:51.112Z,13.46
2023-05-15T04:47:53.682Z,13.50
2023-05-15T04:50:56.242Z,13.44
2023-05-15T04:53:58.628Z,13.58
2023-05-15T04:57:01.408Z,13.59
2023-05-15T05:00:11.969Z,13.62
2023-05-15T05:03:14.530Z,13.65
2023-05-15T05:06:17.218Z,13.68
2023-05-15T05:09:20.134Z,13.51
2023-05-15T05:12:22.583Z,13.41
2023-05-15T05:15:25.472Z,13.52
2023-05-15T05:18:28.058Z,13.66
2023-05-15T05:21:31.015Z,13.77
2023-05-15T05:24:35.879Z,13.73
2023-05-15T05:27:38.604Z,13.88
2023-05-15T05:30:45.451Z,13.78
2023-05-15T05:33:49.853Z,13.98
2023-05-15T05:36:52.527Z,14.10
2023-05-15T05:39:55.022Z,13.98
2023-05-15T05:43:02.085Z,14.14
2023-05-15T05:46:04.667Z,14.17
2023-05-15T05:49:07.144Z,14.25
2023-05-15T05:52:11.359Z,14.32
2023-05-15T05:55:14.393Z,14.44
2023-05-15T06:01:27.770Z,14.49
2023-05-15T06:04:34.128Z,14.57
2023-05-15T06:07:36.905Z,14.61
2023-05-15T06:10:40.041Z,14.85
2023-05-15T06:13:43.492Z,15.21
2023-05-15T06:16:46.151Z,15.46
2023-05-15T06:19:49.430Z,15.84
2023-05-15T06:22:51.871Z,15.98
2023-05-15T06:25:54.366Z,16.14
2023-05-15T06:28:56.815Z,16.21
2023-05-15T06:31:59.280Z,16.01
2023-05-15T06:35:02.392Z,16.10
2023-05-15T06:38:04.922Z,16.18
2023-05-15T06:41:07.421Z,16.34
2023-05-15T06:44:09.858Z,16.39
2023-05-15T06:47:12.430Z,16.67
2023-05-15T06:50:15.007Z,16.48
2023-05-15T06:53:18.705Z,16.70
2023-05-15T06:56:21.878Z,16.56
2023-05-15T06:59:24.400Z,16.55
2023-05-15T07:02:26.925Z,16.71
2023-05-15T07:05:29.498Z,16.99
2023-05-15T07:08:32.136Z,17.53
2023-05-15T07:11:37.425Z,17.46
2023-05-15T07:14:39.955Z,17.60
2023-05-15T07:17:42.482Z,17.78
2023-05-15T07:20:45.254Z,17.87
2023-05-15T07:23:47.761Z,17.72
2023-05-15T07:26:58.251Z,17.39
2023-05-15T07:30:04.184Z,17.22
2023-05-15T07:33:06.936Z,16.95
2023-05-15T07:36:09.684Z,16.61
2023-05-15T07:39:13.431Z,17.14
2023-05-15T07:42:15.932Z,17.48
2023-05-15T07:45:18.655Z,17.97
2023-05-15T07:48:21.206Z,17.48
2023-05-15T07:51:23.877Z,17.34
2023-05-15T07:54:26.963Z,17.34
2023-05-15T07:57:29.950Z,17.33
2023-05-15T08:00:32.517Z,17.28
2023-05-15T08:03:35.006Z,17.40
2023-05-15T08:06:38.607Z,17.16
2023-05-15T08:09:41.428Z,17.03
2023-05-15T08:12:46.617Z,16.51
2023-05-15T08:15:49.088Z,16.82
2023-05-15T08:18:53.634Z,17.40
2023-05-15T08:21:56.261Z,17.97
2023-05-15T08:25:00.159Z,18.87
2023-05-15T08:28:02.996Z,19.18
2023-05-15T08:31:05.364Z,19.56
2023-05-15T08:34:07.924Z,19.05
2023-05-15T08:37:10.668Z,18.79
2023-05-15T08:40:13.441Z,19.06
2023-05-15T08:43:18.314Z,19.14
2023-05-15T08:46:21.533Z,19.26
2023-05-15T08:49:32.926Z,19.40
2023-05-15T08:52:36.205Z,19.68
2023-05-15T08:55:38.791Z,19.76
2023-05-15T08:58:42.196Z,19.02
2023-05-15T09:01:45.713Z,18.37
2023-05-15T09:04:48.623Z,18.26
2023-05-15T09:07:53.022Z,18.68
2023-05-15T09:10:56.715Z,18.86
2023-05-15T09:13:59.988Z,19.12
2023-05-15T09:17:02.618Z,19.26
2023-05-15T09:20:06.237Z,19.60
2023-05-15T09:23:26.131Z,20.17
2023-05-15T09:26:28.660Z,20.50
2023-05-15T09:29:32.186Z,20.75
2023-05-15T09:32:35.024Z,21.46
2023-05-15T09:35:40.906Z,20.29
2023-05-15T09:38:43.803Z,19.85
2023-05-15T09:41:46.467Z,19.62
2023-05-15T09:44:49.219Z,19.69
2023-05-15T09:47:52.130Z,19.70
2023-05-15T09:50:55.305Z,19.54
2023-05-15T09:53:59.224Z,19.23
2023-05-15T09:57:14.006Z,18.47
2023-05-15T10:00:19.657Z,18.84
2023-05-15T10:03:23.497Z,19.02
2023-05-15T10:06:26.292Z,19.57
2023-05-15T10:09:32.417Z,20.79
2023-05-15T10:12:36.646Z,20.23
2023-05-15T10:15:39.870Z,20.80
2023-05-15T10:18:45.182Z,21.85
2023-05-15T10:21:48.248Z,21.91
2023-05-15T10:24:59.673Z,21.74
2023-05-15T10:28:02.571Z,21.60
2023-05-15T10:31:06.079Z,21.79
2023-05-15T10:34:10.416Z,21.27
2023-05-15T10:37:14.587Z,20.97
2023-05-15T10:40:17.892Z,21.24
2023-05-15T10:43:21.470Z,21.94
2023-05-15T10:46:24.738Z,22.34
2023-05-15T10:49:27.738Z,21.82
2023-05-15T10:56:14.875Z,23.13
2023-05-15T10:59:17.540Z,25.23
2023-05-15T11:02:23.367Z,25.13
2023-05-15T11:05:26.501Z,26.51
2023-05-15T11:08:29.089Z,25.66
2023-05-15T11:12:03.962Z,24.38
2023-05-15T11:15:09.475Z,24.16
2023-05-15T11:18:12.734Z,24.24
2023-05-15T11:21:15.237Z,26.49
2023-05-15T11:24:18.373Z,26.12
2023-05-15T11:27:33.730Z,24.10
2023-05-15T11:30:39.946Z,25.05
2023-05-15T11:33:42.613Z,25.15
2023-05-15T11:36:46.214Z,24.36
2023-05-15T11:39:52.298Z,23.79
2023-05-15T11:43:27.061Z,23.81
2023-05-15T11:46:30.455Z,27.27
2023-05-15T11:49:33.014Z,26.13
2023-05-15T11:52:36.200Z,26.62
2023-05-15T11:55:44.545Z,25.10
2023-05-15T11:59:00.500Z,27.43
2023-05-15T12:02:06.110Z,25.86
2023-05-15T12:05:09.626Z,23.80
2023-05-15T12:08:13.408Z,22.81
2023-05-15T12:11:16.240Z,23.22
2023-05-15T12:14:29.435Z,22.75
2023-05-15T12:17:33.280Z,22.99
2023-05-15T12:20:37.389Z,22.47
2023-05-15T12:23:40.018Z,21.81
2023-05-15T12:26:42.717Z,21.37
2023-05-15T12:29:45.901Z,20.97
2023-05-15T12:32:48.975Z,21.58
2023-05-15T12:35:58.931Z,23.67
2023-05-15T12:39:08.060Z,25.13
2023-05-15T12:42:10.813Z,25.62
2023-05-15T12:45:18.454Z,27.69
2023-05-15T12:48:21.815Z,24.12
2023-05-15T12:51:24.338Z,23.34
2023-05-15T12:54:26.868Z,22.91
2023-05-15T12:57:29.994Z,22.75
2023-05-15T13:00:34.673Z,22.33
2023-05-15T13:03:37.392Z,21.81
2023-05-15T13:06:46.605Z,21.75
2023-05-15T13:10:04.767Z,20.84
2023-05-15T13:13:07.414Z,20.83
2023-05-15T13:16:29.810Z,20.82
2023-05-15T13:19:32.637Z,21.03
2023-05-15T13:22:35.235Z,21.27
2023-05-15T13:25:37.886Z,21.32
2023-05-15T13:28:40.467Z,21.62
2023-05-15T13:31:43.160Z,21.93
2023-05-15T13:34:46.899Z,21.90
2023-05-15T13:37:50.041Z,22.02
2023-05-15T13:40:52.771Z,22.22
2023-05-15T13:43:55.223Z,23.34
2023-05-15T13:46:58.387Z,23.46
2023-05-15T13:50:01.207Z,28.07
2023-05-15T13:53:04.182Z,27.17
2023-05-15T13:56:07.363Z,29.30
2023-05-15T13:59:12.033Z,29.25
2023-05-15T14:02:16.031Z,27.04
2023-05-15T14:05:19.158Z,27.98
2023-05-15T14:08:21.809Z,26.67
2023-05-15T14:11:24.461Z,26.28
2023-05-15T14:14:27.017Z,26.16
2023-05-15T14:17:29.877Z,25.98
2023-05-15T14:20:32.337Z,26.04
2023-05-15T14:23:34.763Z,24.67
2023-05-15T14:26:37.345Z,24.36
2023-05-15T14:29:40.027Z,24.21
2023-05-15T14:32:42.669Z,23.46
2023-05-15T14:35:45.165Z,23.36
2023-05-15T14:38:48.860Z,23.24
2023-05-15T14:41:51.307Z,22.61
2023-05-15T14:44:53.842Z,22.03
2023-05-15T14:47:56.413Z,22.32
2023-05-15T14:50:58.891Z,21.98
2023-05-15T14:54:01.326Z,21.94
2023-05-15T14:57:04.065Z,21.95
2023-05-15T15:00:07.352Z,21.76
2023-05-15T15:03:10.951Z,20.78
2023-05-15T15:06:13.552Z,21.05
2023-05-15T15:09:16.013Z,21.31
2023-05-15T15:12:18.524Z,21.23
2023-05-15T15:15:21.569Z,21.30
2023-05-15T15:18:24.976Z,20.96
2023-05-15T15:21:27.574Z,21.19
2023-05-15T15:24:29.983Z,21.45
2023-05-15T15:27:33.253Z,21.70
2023-05-15T15:30:35.961Z,22.10
2023-05-15T15:33:38.440Z,21.79
2023-05-15T15:36:41.557Z,21.95
2023-05-15T15:39:44.070Z,22.09
2023-05-15T15:42:46.521Z,22.34
2023-05-15T15:45:48.918Z,22.21
2023-05-15T15:48:51.342Z,22.68
2023-05-15T15:51:53.923Z,24.09
2023-05-15T15:54:56.406Z,24.53
2023-05-15T15:57:58.818Z,24.91
2023-05-15T16:01:02.968Z,24.15
2023-05-15T16:04:05.413Z,24.32
2023-05-15T16:07:07.954Z,24.25
2023-05-15T16:10:13.355Z,23.43
2023-05-15T16:13:16.164Z,22.79
2023-05-15T16:16:18.807Z,22.48
2023-05-15T16:19:21.667Z,21.98
2023-05-15T16:22:24.116Z,21.50
2023-05-15T16:25:26.478Z,21.25
2023-05-15T16:28:28.924Z,20.86
2023-05-15T16:31:31.982Z,20.72
2023-05-15T16:34:34.409Z,20.63
2023-05-15T16:37:36.886Z,20.68
2023-05-15T16:40:39.437Z,20.50
2023-05-15T16:43:41.993Z,20.60
2023-05-15T16:46:44.446Z,20.62
2023-05-15T16:49:49.212Z,20.47
2023-05-15T16:52:52.719Z,20.54
2023-05-15T16:55:55.153Z,20.26
2023-05-15T16:58:57.578Z,20.23
2023-05-15T17:02:00.837Z,20.31
2023-05-15T17:05:03.873Z,20.60
2023-05-15T17:08:06.399Z,20.69
2023-05-15T17:11:09.839Z,20.71
2023-05-15T17:14:12.278Z,20.36
2023-05-15T17:17:14.685Z,19.97
2023-05-15T17:20:17.712Z,19.49
2023-05-15T17:23:22.856Z,19.44
2023-05-15T17:26:26.200Z,19.40
2023-05-15T17:29:28.637Z,18.99
2023-05-15T17:32:31.200Z,18.71
2023-05-15T17:35:33.845Z,18.76
2023-05-15T17:38:36.387Z,18.71
2023-05-15T17:41:38.798Z,18.59
2023-05-15T17:44:41.360Z,18.43
2023-05-15T17:47:43.967Z,18.45
2023-05-15T17:50:46.712Z,18.39
2023-05-15T17:53:49.114Z,18.24
2023-05-15T17:56:51.628Z,18.24
2023-05-15T17:59:54.127Z,18.10
2023-05-15T18:02:56.597Z,18.13
2023-05-15T18:05:59.388Z,18.05
2023-05-15T18:09:01.970Z,17.86
2023-05-15T18:12:04.545Z,17.74
2023-05-15T18:15:07.536Z,17.71
2023-05-15T18:18:10.297Z,17.61
2023-05-15T18:21:12.827Z,17.54
2023-05-15T18:24:15.406Z,17.40
2023-05-15T18:27:17.844Z,17.43
2023-05-15T18:30:20.463Z,17.32
2023-05-15T18:33:23.016Z,17.17
2023-05-15T18:36:25.967Z,17.18
2023-05-15T18:39:28.754Z,17.08
2023-05-15T18:42:31.379Z,17.13
2023-05-15T18:45:34.816Z,17.04
2023-05-15T18:48:37.269Z,16.98
2023-05-15T18:51:39.749Z,16.79
2023-05-15T18:54:42.266Z,16.69
2023-05-15T18:57:45.546Z,16.60
2023-05-15T19:00:48.045Z,16.55
2023-05-15T19:03:50.600Z,16.49
2023-05-15T19:06:53.210Z,16.50
2023-05-15T19:09:55.963Z,16.42
2023-05-15T19:12:58.740Z,16.24
2023-05-15T19:16:01.216Z,16.27
2023-05-15T19:19:03.900Z,16.24
2023-05-15T19:22:06.393Z,16.31
2023-05-15T19:25:09.325Z,16.19
2023-05-15T19:28:13.035Z,15.98
2023-05-15T19:31:27.828Z,15.95
2023-05-15T19:34:34.055Z,15.95
2023-05-15T19:37:37.108Z,15.88
2023-05-15T19:40:43.952Z,15.77
2023-05-15T19:43:47.121Z,15.83
2023-05-15T19:46:49.884Z,15.76
2023-05-15T19:49:52.464Z,15.77
2023-05-15T19:52:54.923Z,15.76
2023-05-15T19:55:57.388Z,15.65
2023-05-15T19:59:00.625Z,15.66
2023-05-15T20:02:03.342Z,15.69
2023-05-15T20:05:06.251Z,15.60
2023-05-15T20:08:08.836Z,15.42
2023-05-15T20:11:11.332Z,15.38
2023-05-15T20:14:14.882Z,15.26
2023-05-15T20:17:17.634Z,15.16
2023-05-15T20:20:20.193Z,15.22
2023-05-15T20:23:22.850Z,15.23
2023-05-15T20:26:25.330Z,15.17
2023-05-15T20:29:27.738Z,15.17
2023-05-15T20:32:30.669Z,15.09
2023-05-15T20:35:33.152Z,15.00
2023-05-15T20:38:36.033Z,14.89
2023-05-15T20:41:38.445Z,14.81
2023-05-15T20:44:40.944Z,14.83
2023-05-15T20:47:43.761Z,14.74
2023-05-15T20:50:46.322Z,14.64
2023-05-15T20:53:48.764Z,14.79
2023-05-15T20:56:51.174Z,14.79
2023-05-15T20:59:53.537Z,14.79
2023-05-15T21:02:56.099Z,14.77
2023-05-15T21:05:58.687Z,14.66
2023-05-15T21:09:01.098Z,14.74
2023-05-15T21:12:04.196Z,14.71
2023-05-15T21:15:07.473Z,14.71
2023-05-15T21:18:10.175Z,14.73
2023-05-15T21:21:12.728Z,14.55
2023-05-15T21:24:16.748Z,14.55
2023-05-15T21:27:20.184Z,14.53
2023-05-15T21:30:22.616Z,14.48
2023-05-15T21:33:25.017Z,14.51
2023-05-15T21:36:27.404Z,14.51
2023-05-15T21:39:29.780Z,14.62
2023-05-15T21:42:32.324Z,14.59
2023-05-15T21:45:34.926Z,14.47
2023-05-15T21:48:37.421Z,14.57
2023-05-15T21:51:40.031Z,14.47
2023-05-15T21:54:43.910Z,14.54
2023-05-15T21:57:46.474Z,14.46
2023-05-15T22:00:48.909Z,14.57
2023-05-15T22:03:51.512Z,14.55
2023-05-15T22:06:54.084Z,14.50
2023-05-15T22:09:56.746Z,14.39
2023-05-15T22:13:02.614Z,14.39
2023-05-15T22:16:06.438Z,14.40
2023-05-15T22:19:18.529Z,14.33
2023-05-15T22:22:31.241Z,14.38
2023-05-15T22:25:33.720Z,14.33
2023-05-15T22:28:36.142Z,14.29
2023-05-15T22:31:38.677Z,14.24
2023-05-15T22:34:41.113Z,14.11
2023-05-15T22:37:45.393Z,14.14
2023-05-15T22:40:51.673Z,14.01
2023-05-15T22:43:54.875Z,14.13
2023-05-15T22:46:57.329Z,14.17
2023-05-15T22:49:59.910Z,14.21
2023-05-15T22:53:02.687Z,14.19
2023-05-15T22:56:05.414Z,14.15
2023-05-15T22:59:07.889Z,14.10
2023-05-15T23:02:10.475Z,14.08
2023-05-15T23:05:12.894Z,14.08
2023-05-15T23:08:15.387Z,14.13
2023-05-15T23:11:17.866Z,14.25
2023-05-15T23:14:21.762Z,14.19
2023-05-15T23:17:25.812Z,14.01
2023-05-15T23:20:29.477Z,14.00
2023-05-15T23:23:32.383Z,13.92
2023-05-15T23:26:34.752Z,13.97
2023-05-15T23:29:37.222Z,14.03
2023-05-15T23:32:39.695Z,13.93
2023-05-15T23:35:43.281Z,13.96
2023-05-15T23:38:45.695Z,13.92
2023-05-15T23:41:48.165Z,13.97
2023-05-15T23:44:51.526Z,13.86
2023-05-15T23:47:54.031Z,13.83
2023-05-15T23:50:56.557Z,13.86
2023-05-15T23:53:58.970Z,13.85
2023-05-15T23:57:02.663Z,13.86
